Time;durP1;ratioP1;P1;durP2;ratioP2;P2;SDS_P1;SDS_P2;PMS_P1;PMS_P2;Temp;Humidity;BMP_temperature;BMP_pressure;BME280_temperature;BME280_humidity;BME280_pressure;Samples;Min_cycle;Max_cycle;Signal;HPM_P1;HPM_P2
2022/02/07 00:03:30;;;;;;;0.30;0.30;;;;;;;;;;6132180;23;20514;-84
2022/02/07 00:06:27;;;;;;;0.40;0.30;;;;;;;;;;6132672;23;20498;-85
2022/02/07 00:09:33;;;;;;;0.40;0.30;;;;;;;;;;6139708;23;20552;-85
2022/02/07 00:12:37;;;;;;;0.30;0.30;;;;;;;;;;6139408;23;20549;-84
2022/02/07 00:15:41;;;;;;;0.67;0.30;;;;;;;;;;6122186;23;20601;-86
2022/02/07 00:18:45;;;;;;;0.27;0.27;;;;;;;;;;6149565;23;20525;-85
2022/02/07 00:21:50;;;;;;;0.40;0.30;;;;;;;;;;6149585;23;20506;-85
2022/02/07 00:24:55;;;;;;;0.30;0.30;;;;;;;;;;6160480;23;20576;-85
2022/02/07 00:27:59;;;;;;;0.30;0.30;;;;;;;;;;6139286;23;20561;-85
2022/02/07 00:31:04;;;;;;;0.47;0.30;;;;;;;;;;6139496;23;20553;-85
2022/02/07 00:34:09;;;;;;;0.20;0.20;;;;;;;;;;6126185;23;20605;-85
2022/02/07 00:37:14;;;;;;;0.30;0.30;;;;;;;;;;6122580;23;21088;-86
2022/02/07 00:43:35;;;;;;;0.30;0.30;;;;;;;;;;6139536;23;20895;-86
2022/02/07 00:46:49;;;;;;;0.30;0.30;;;;;;;;;;6139411;23;20545;-87
2022/02/07 00:49:55;;;;;;;0.27;0.27;;;;;;;;;;6115838;23;21050;-87
2022/02/07 00:53:01;;;;;;;0.30;0.30;;;;;;;;;;6149366;23;20506;-87
2022/02/07 00:56:05;;;;;;;0.30;0.30;;;;;;;;;;6148994;23;20569;-87
2022/02/07 00:59:13;;;;;;;0.20;0.20;;;;;;;;;;6116452;23;20522;-87
2022/02/07 01:02:17;;;;;;;0.30;0.30;;;;;;;;;;6105790;23;20545;-86
2022/02/07 01:05:22;;;;;;;0.33;0.30;;;;;;;;;;6121907;23;20890;-87
2022/02/07 01:08:38;;;;;;;0.30;0.30;;;;;;;;;;6131725;23;20521;-88
2022/02/07 01:22:29;;;;;;;1.03;0.30;;;;;;;;;;6131959;23;20506;-87
2022/02/07 01:46:36;;;;;;;0.30;0.30;;;;;;;;;;6131279;23;20514;-87
2022/02/07 01:50:05;;;;;;;0.40;0.30;;;;;;;;;;6122006;23;20560;-87
2022/02/07 01:56:45;;;;;;;0.30;0.30;;;;;;;;;;6148352;23;20562;-87
2022/02/07 01:59:51;;;;;;;0.30;0.30;;;;;;;;;;6115382;23;20525;-87
2022/02/07 02:02:59;;;;;;;0.30;0.30;;;;;;;;;;6122541;23;20947;-87
2022/02/07 02:06:21;;;;;;;0.73;0.30;;;;;;;;;;6117918;23;20870;-87
2022/02/07 02:09:34;;;;;;;0.30;0.30;;;;;;;;;;6138831;23;20553;-87
2022/02/07 02:13:22;;;;;;;0.30;0.30;;;;;;;;;;6121795;23;20858;-87
2022/02/07 02:16:26;;;;;;;0.40;0.40;;;;;;;;;;6166069;23;20565;-87
2022/02/07 02:45:45;;;;;;;0.40;0.40;;;;;;;;;;6124160;23;20568;-87
2022/02/07 02:49:01;;;;;;;2.73;0.37;;;;;;;;;;6150715;23;20517;-86
2022/02/07 02:52:07;;;;;;;0.30;0.30;;;;;;;;;;6107083;23;20549;-86
2022/02/07 02:55:11;;;;;;;1.17;0.30;;;;;;;;;;6126061;23;20565;-83
2022/02/07 02:58:18;;;;;;;0.50;0.47;;;;;;;;;;6150778;23;20514;-87
2022/02/07 03:01:25;;;;;;;0.43;0.43;;;;;;;;;;6150678;23;20513;-87
2022/02/07 03:04:34;;;;;;;0.87;0.43;;;;;;;;;;6107804;23;20572;-86
2022/02/07 03:07:38;;;;;;;0.63;0.50;;;;;;;;;;6132736;23;20513;-86
2022/02/07 03:11:09;;;;;;;0.57;0.40;;;;;;;;;;6133717;23;20820;-86
2022/02/07 03:14:08;;;;;;;0.70;0.50;;;;;;;;;;6146547;23;20569;-86
2022/02/07 03:17:22;;;;;;;0.40;0.40;;;;;;;;;;6132814;23;20878;-88
2022/02/07 03:20:27;;;;;;;0.30;0.30;;;;;;;;;;6124082;23;21093;-86
2022/02/07 03:23:31;;;;;;;0.93;0.50;;;;;;;;;;6132345;23;20513;-87
2022/02/07 03:26:44;;;;;;;2.97;0.50;;;;;;;;;;6150043;23;20510;-83
2022/02/07 03:29:54;;;;;;;1.03;0.60;;;;;;;;;;6133441;23;20514;-86
2022/02/07 03:33:04;;;;;;;0.83;0.60;;;;;;;;;;6131853;23;20513;-86
2022/02/07 03:36:09;;;;;;;0.73;0.50;;;;;;;;;;6087579;23;20646;-85
2022/02/07 03:39:14;;;;;;;0.83;0.60;;;;;;;;;;6074795;23;20523;-85
2022/02/07 03:42:18;;;;;;;0.87;0.70;;;;;;;;;;6091408;23;20514;-85
2022/02/07 03:45:33;;;;;;;0.90;0.53;;;;;;;;;;6069329;23;20579;-85
2022/02/07 03:48:43;;;;;;;1.53;0.70;;;;;;;;;;6049597;23;20551;-86
2022/02/07 03:51:47;;;;;;;0.43;0.43;;;;;;;;;;6090824;23;21059;-85
2022/02/07 03:54:55;;;;;;;0.90;0.70;;;;;;;;;;6072227;23;20892;-85
2022/02/07 03:58:00;;;;;;;2.87;0.90;;;;;;;;;;6065036;23;20599;-85
2022/02/07 04:01:04;;;;;;;0.80;0.67;;;;;;;;;;6065461;23;20900;-85
2022/02/07 04:04:17;;;;;;;1.50;0.80;;;;;;;;;;6073776;23;20515;-85
2022/02/07 04:07:24;;;;;;;3.67;0.67;;;;;;;;;;6057708;23;20515;-84
2022/02/07 04:10:35;;;;;;;0.70;0.60;;;;;;;;;;6098469;23;20563;-84
2022/02/07 04:13:42;;;;;;;0.67;0.60;;;;;;;;;;6064965;23;21091;-84
2022/02/07 04:16:48;;;;;;;2.13;0.73;;;;;;;;;;6081032;23;20595;-84
2022/02/07 04:20:01;;;;;;;2.30;0.70;;;;;;;;;;6074238;23;20527;-84
2022/02/07 04:23:18;;;;;;;1.53;0.70;;;;;;;;;;6074207;23;20515;-84
2022/02/07 04:26:42;;;;;;;1.07;0.60;;;;;;;;;;6077582;23;20512;-85
2022/02/07 04:29:47;;;;;;;0.83;0.60;;;;;;;;;;6064267;23;20888;-84
2022/02/07 04:32:52;;;;;;;1.60;0.90;;;;;;;;;;6074065;23;21048;-82
2022/02/07 04:35:56;;;;;;;0.87;0.70;;;;;;;;;;6067012;23;20598;-84
2022/02/07 04:39:00;;;;;;;1.97;0.80;;;;;;;;;;6073978;23;20503;-84
2022/02/07 04:42:08;;;;;;;1.70;0.80;;;;;;;;;;6074049;23;20528;-84
2022/02/07 04:45:39;;;;;;;2.40;0.70;;;;;;;;;;6070045;23;20574;-84
2022/02/07 04:52:26;;;;;;;1.00;0.50;;;;;;;;;;6074070;23;20819;-84
2022/02/07 04:55:41;;;;;;;1.37;0.70;;;;;;;;;;6069114;23;20590;-84
2022/02/07 05:02:07;;;;;;;3.53;0.80;;;;;;;;;;6091525;23;20519;-84
2022/02/07 05:15:23;;;;;;;1.17;0.63;;;;;;;;;;6070102;23;20587;-84
2022/02/07 05:18:30;;;;;;;0.90;0.70;;;;;;;;;;6065475;23;20961;-84
2022/02/07 05:21:53;;;;;;;3.03;1.00;;;;;;;;;;6078376;23;20519;-84
2022/02/07 05:25:18;;;;;;;2.90;0.83;;;;;;;;;;6070840;23;20579;-84
2022/02/07 05:28:36;;;;;;;4.37;0.87;;;;;;;;;;6061411;23;20860;-84
2022/02/07 05:31:50;;;;;;;3.07;0.70;;;;;;;;;;6075145;23;20520;-84
2022/02/07 05:35:27;;;;;;;3.87;1.00;;;;;;;;;;6057508;23;20615;-84
2022/02/07 05:38:54;;;;;;;3.73;1.10;;;;;;;;;;6074219;23;20512;-84
2022/02/07 05:42:24;;;;;;;1.83;0.80;;;;;;;;;;6091344;23;20523;-84
2022/02/07 05:45:39;;;;;;;2.73;1.10;;;;;;;;;;6069292;23;20575;-84
2022/02/07 05:49:06;;;;;;;3.37;0.90;;;;;;;;;;6075685;23;20504;-84
2022/02/07 05:52:24;;;;;;;3.93;0.80;;;;;;;;;;6075243;23;20506;-83
2022/02/07 05:55:37;;;;;;;4.43;0.90;;;;;;;;;;6069588;23;20578;-83
2022/02/07 05:58:55;;;;;;;3.10;0.80;;;;;;;;;;6074163;23;20512;-86
2022/02/07 06:02:13;;;;;;;3.97;1.13;;;;;;;;;;6075479;23;20507;-86
2022/02/07 06:05:17;;;;;;;2.77;0.90;;;;;;;;;;6070631;23;20574;-85
2022/02/07 06:08:22;;;;;;;2.37;0.80;;;;;;;;;;6075049;23;20547;-86
2022/02/07 06:11:27;;;;;;;2.30;1.00;;;;;;;;;;6075442;23;21012;-86
2022/02/07 06:14:31;;;;;;;3.17;0.90;;;;;;;;;;6073980;23;20519;-86
2022/02/07 06:17:36;;;;;;;2.57;0.80;;;;;;;;;;6074441;23;21099;-86
2022/02/07 06:20:41;;;;;;;3.13;1.10;;;;;;;;;;6075168;23;20514;-86
2022/02/07 06:23:45;;;;;;;5.40;0.97;;;;;;;;;;6082150;23;20558;-86
2022/02/07 06:26:56;;;;;;;3.53;0.90;;;;;;;;;;6075207;23;20499;-86
2022/02/07 06:30:01;;;;;;;4.50;1.20;;;;;;;;;;6074871;23;20523;-86
2022/02/07 06:33:06;;;;;;;5.27;1.53;;;;;;;;;;6091668;23;20515;-86
2022/02/07 06:36:11;;;;;;;4.30;1.53;;;;;;;;;;6072949;23;20606;-86
2022/02/07 06:39:14;;;;;;;4.17;1.13;;;;;;;;;;6090959;23;20511;-86
2022/02/07 06:42:22;;;;;;;3.80;1.10;;;;;;;;;;6107549;23;21044;-86
2022/02/07 06:45:28;;;;;;;2.67;1.00;;;;;;;;;;6087142;23;20574;-86
2022/02/07 06:48:35;;;;;;;5.03;1.93;;;;;;;;;;6074302;23;20516;-86
2022/02/07 06:51:40;;;;;;;4.93;1.30;;;;;;;;;;6074801;23;20507;-86
2022/02/07 06:54:44;;;;;;;6.50;2.70;;;;;;;;;;6073024;23;20578;-87
2022/02/07 06:57:49;;;;;;;4.97;2.20;;;;;;;;;;6074420;23;21115;-86
2022/02/07 07:00:55;;;;;;;4.40;1.23;;;;;;;;;;6090900;23;20822;-86
2022/02/07 07:04:00;;;;;;;2.17;1.00;;;;;;;;;;6074633;23;20530;-86
2022/02/07 07:07:05;;;;;;;2.40;1.20;;;;;;;;;;6091321;23;20511;-86
2022/02/07 07:10:10;;;;;;;6.00;1.37;;;;;;;;;;6065126;23;20550;-86
2022/02/07 07:13:21;;;;;;;3.07;1.40;;;;;;;;;;6074298;23;21065;-86
2022/02/07 07:19:31;;;;;;;6.47;1.63;;;;;;;;;;6074204;23;20853;-86
2022/02/07 07:22:35;;;;;;;4.10;1.50;;;;;;;;;;6074175;23;20520;-84
2022/02/07 07:25:46;;;;;;;2.67;1.33;;;;;;;;;;6064616;23;21135;-85
2022/02/07 07:28:54;;;;;;;8.00;1.87;;;;;;;;;;6074025;23;20515;-85
2022/02/07 07:32:02;;;;;;;3.90;1.43;;;;;;;;;;6107638;23;21020;-85
2022/02/07 07:35:09;;;;;;;1.80;1.33;;;;;;;;;;6070547;23;20595;-85
2022/02/07 07:38:14;;;;;;;3.27;1.30;;;;;;;;;;6074149;23;20574;-84
2022/02/07 07:41:19;;;;;;;7.17;1.50;;;;;;;;;;6064767;23;20566;-84
2022/02/07 07:44:36;;;;;;;4.77;1.17;;;;;;;;;;6073242;23;21049;-85
2022/02/07 07:48:01;;;;;;;4.53;1.47;;;;;;;;;;6074494;23;20849;-84
2022/02/07 07:51:44;;;;;;;4.80;1.50;;;;;;;;;;6080731;23;20836;-84
2022/02/07 08:04:54;;;;;;;23.67;12.13;;;;;;;;;;6087845;23;20582;-85
2022/02/07 08:08:09;;;;;;;8.93;4.40;;;;;;;;;;6090247;23;20515;-86
2022/02/07 08:11:17;;;;;;;20.43;9.13;;;;;;;;;;6073981;23;20511;-85
2022/02/07 08:14:30;;;;;;;25.30;13.83;;;;;;;;;;6089557;23;20519;-85
2022/02/07 08:17:34;;;;;;;39.00;19.40;;;;;;;;;;6073612;23;20567;-85
2022/02/07 08:20:38;;;;;;;9.43;4.57;;;;;;;;;;6063859;23;20567;-85
2022/02/07 08:23:43;;;;;;;24.57;15.50;;;;;;;;;;6073634;23;20507;-85
2022/02/07 08:26:48;;;;;;;6.23;2.20;;;;;;;;;;6080819;23;20558;-84
2022/02/07 08:29:54;;;;;;;10.13;2.20;;;;;;;;;;6064186;23;21079;-86
2022/02/07 08:33:00;;;;;;;5.27;2.43;;;;;;;;;;6063738;23;20559;-87
2022/02/07 08:36:05;;;;;;;9.23;2.20;;;;;;;;;;6066121;23;20598;-84
2022/02/07 08:39:10;;;;;;;4.23;1.60;;;;;;;;;;6073881;23;20563;-84
2022/02/07 08:42:14;;;;;;;6.33;3.00;;;;;;;;;;6074127;23;20527;-84
2022/02/07 08:45:19;;;;;;;5.03;2.00;;;;;;;;;;6069292;23;20575;-85
2022/02/07 08:48:24;;;;;;;23.40;11.93;;;;;;;;;;6073848;23;20504;-83
2022/02/07 08:51:31;;;;;;;6.97;3.17;;;;;;;;;;6074015;23;20512;-85
2022/02/07 08:54:36;;;;;;;4.87;2.00;;;;;;;;;;6072801;23;20578;-85
2022/02/07 08:57:45;;;;;;;3.57;1.47;;;;;;;;;;6057754;23;20563;-85
2022/02/07 09:04:41;;;;;;;4.87;1.90;;;;;;;;;;6073536;23;20515;-84
2022/02/07 09:07:35;;;;;;;6.03;2.70;;;;;;;;;;6098443;23;20563;-84
2022/02/07 09:10:39;;;;;;;7.70;2.93;;;;;;;;;;6080778;23;20559;-85
2022/02/07 09:13:45;;;;;;;3.37;1.97;;;;;;;;;;6073470;23;20515;-85
2022/02/07 09:16:51;;;;;;;6.40;2.60;;;;;;;;;;6073548;23;20528;-84
2022/02/07 09:19:55;;;;;;;3.97;2.00;;;;;;;;;;6073241;23;20508;-84
2022/02/07 09:23:00;;;;;;;7.73;2.70;;;;;;;;;;6058204;23;21032;-85
2022/02/07 09:26:05;;;;;;;4.33;1.77;;;;;;;;;;6050318;23;20578;-85
2022/02/07 09:29:10;;;;;;;4.00;1.50;;;;;;;;;;6073796;23;20511;-84
2022/02/07 09:32:14;;;;;;;5.20;2.20;;;;;;;;;;6073108;23;20520;-85
2022/02/07 09:35:18;;;;;;;5.28;1.80;;;;;;;;;;6020166;23;1163039;-85
2022/02/07 09:38:22;;;;;;;7.03;2.97;;;;;;;;;;6103155;23;20577;-87
2022/02/07 09:41:31;;;;;;;4.83;2.70;;;;;;;;;;6094606;23;20557;-85
2022/02/07 09:44:45;;;;;;;5.47;2.17;;;;;;;;;;6139558;23;21039;-86
2022/02/07 09:47:49;;;;;;;21.77;12.93;;;;;;;;;;6058209;23;20822;-86
2022/02/07 09:50:53;;;;;;;5.10;2.67;;;;;;;;;;6075882;23;20519;-85
2022/02/07 09:53:58;;;;;;;7.80;3.40;;;;;;;;;;6077512;23;20507;-87
2022/02/07 09:57:03;;;;;;;5.03;1.80;;;;;;;;;;6084602;23;20580;-86
2022/02/07 10:00:08;;;;;;;4.23;1.60;;;;;;;;;;6064153;23;20563;-84
2022/02/07 10:03:31;;;;;;;4.53;1.77;;;;;;;;;;6092323;23;20519;-87
2022/02/07 10:10:12;;;;;;;4.67;1.27;;;;;;;;;;6073525;23;20507;-88
2022/02/07 10:37:40;;;;;;;6.30;1.87;;;;;;;;;;6066785;23;20595;-85
2022/02/07 10:46:53;;;;;;;4.50;1.47;;;;;;;;;;6085100;23;20574;-84
2022/02/07 10:50:11;;;;;;;4.57;1.57;;;;;;;;;;6079689;23;20519;-86
2022/02/07 10:53:22;;;;;;;4.37;1.37;;;;;;;;;;6061361;23;20515;-85
2022/02/07 10:56:37;;;;;;;9.10;1.40;;;;;;;;;;6081813;23;20587;-85
2022/02/07 10:59:41;;;;;;;6.33;1.60;;;;;;;;;;6075884;23;20561;-84
2022/02/07 11:03:35;;;;;;;5.13;1.50;;;;;;;;;;6050692;23;20559;-87
2022/02/07 11:06:16;;;;;;;7.07;2.80;;;;;;;;;;6074114;23;20586;-88
2022/02/07 11:09:34;;;;;;;25.20;14.73;;;;;;;;;;6109710;23;20511;-84
2022/02/07 11:13:08;;;;;;;5.33;3.03;;;;;;;;;;6112221;23;20516;-87
2022/02/07 11:16:25;;;;;;;5.40;1.60;;;;;;;;;;6090816;23;20574;-85
2022/02/07 11:26:54;;;;;;;4.13;1.47;;;;;;;;;;5987996;23;20873;-85
2022/02/07 11:29:59;;;;;;;10.10;2.10;;;;;;;;;;6021068;23;20578;-88
2022/02/07 11:33:06;;;;;;;5.10;1.50;;;;;;;;;;6074969;23;20814;-87
2022/02/07 11:36:20;;;;;;;4.33;1.27;;;;;;;;;;6068397;23;20594;-85
2022/02/07 11:39:40;;;;;;;4.70;1.20;;;;;;;;;;6061582;23;20559;-86
2022/02/07 11:43:09;;;;;;;6.57;1.40;;;;;;;;;;6062952;23;20508;-86
2022/02/07 11:46:13;;;;;;;5.63;1.23;;;;;;;;;;6072868;23;20558;-87
2022/02/07 11:49:23;;;;;;;5.40;1.43;;;;;;;;;;6063099;23;20515;-85
2022/02/07 11:52:32;;;;;;;4.13;1.30;;;;;;;;;;6060252;23;20508;-86
2022/02/07 11:55:42;;;;;;;5.77;1.50;;;;;;;;;;6050668;23;20582;-87
2022/02/07 11:59:01;;;;;;;6.73;1.30;;;;;;;;;;6059290;23;20571;-87
2022/02/07 12:02:09;;;;;;;4.43;1.10;;;;;;;;;;6075953;23;20553;-87
2022/02/07 12:05:18;;;;;;;4.97;1.50;;;;;;;;;;6091171;23;20520;-85
2022/02/07 12:08:25;;;;;;;5.17;1.43;;;;;;;;;;6075598;23;20504;-87
2022/02/07 12:11:43;;;;;;;5.43;1.23;;;;;;;;;;6094057;23;20516;-86
2022/02/07 12:14:48;;;;;;;7.93;1.23;;;;;;;;;;6075329;23;20512;-87
2022/02/07 12:17:58;;;;;;;5.47;1.43;;;;;;;;;;6080658;23;20507;-85
2022/02/07 12:21:22;;;;;;;4.63;2.20;;;;;;;;;;6094854;23;20512;-85
2022/02/07 12:24:53;;;;;;;7.00;1.40;;;;;;;;;;6060309;23;20516;-86
2022/02/07 12:27:58;;;;;;;6.20;1.40;;;;;;;;;;6058428;23;20851;-87
2022/02/07 12:31:11;;;;;;;5.70;1.37;;;;;;;;;;6075411;23;20515;-87
2022/02/07 12:34:15;;;;;;;3.77;1.10;;;;;;;;;;6093744;23;20507;-85
2022/02/07 12:37:22;;;;;;;6.00;1.50;;;;;;;;;;6090813;23;20600;-86
2022/02/07 12:40:26;;;;;;;5.33;1.20;;;;;;;;;;6049168;23;21163;-84
2022/02/07 12:43:33;;;;;;;5.17;1.47;;;;;;;;;;6084733;23;20551;-87
2022/02/07 12:46:45;;;;;;;5.20;1.50;;;;;;;;;;6071765;23;21155;-85
2022/02/07 12:49:54;;;;;;;6.67;1.70;;;;;;;;;;6058261;23;20527;-88
2022/02/07 12:52:58;;;;;;;4.43;1.40;;;;;;;;;;6075275;23;20519;-87
2022/02/07 12:56:05;;;;;;;6.93;1.50;;;;;;;;;;6054910;23;20904;-88
2022/02/07 12:59:09;;;;;;;4.20;1.50;;;;;;;;;;6074721;23;20571;-87
2022/02/07 13:02:13;;;;;;;6.63;1.40;;;;;;;;;;6057469;23;20515;-87
2022/02/07 13:05:21;;;;;;;4.07;1.60;;;;;;;;;;6074352;23;20523;-86
2022/02/07 13:08:25;;;;;;;8.33;1.60;;;;;;;;;;6079799;23;20519;-86
2022/02/07 13:11:33;;;;;;;9.07;3.73;;;;;;;;;;6077143;23;20511;-86
2022/02/07 13:14:46;;;;;;;8.87;4.40;;;;;;;;;;6078194;23;21055;-84
2022/02/07 13:17:54;;;;;;;7.43;2.13;;;;;;;;;;6079515;23;21056;-87
2022/02/07 13:21:03;;;;;;;7.80;3.23;;;;;;;;;;6054607;23;21095;-85
2022/02/07 13:24:13;;;;;;;7.17;2.83;;;;;;;;;;6089255;23;20563;-85
2022/02/07 13:27:19;;;;;;;44.70;22.60;;;;;;;;;;6072286;23;21143;-85
2022/02/07 13:30:25;;;;;;;19.80;14.50;;;;;;;;;;6080761;23;20510;-87
2022/02/07 13:33:29;;;;;;;11.90;8.90;;;;;;;;;;6077698;23;20520;-85
2022/02/07 13:36:41;;;;;;;6.83;3.20;;;;;;;;;;6084935;23;20594;-86
2022/02/07 13:40:12;;;;;;;8.00;3.90;;;;;;;;;;6077595;23;20571;-86
2022/02/07 13:43:35;;;;;;;10.93;5.00;;;;;;;;;;6076062;23;20519;-88
2022/02/07 13:46:40;;;;;;;10.93;5.07;;;;;;;;;;6068991;23;20586;-85
2022/02/07 13:50:20;;;;;;;26.43;7.63;;;;;;;;;;6074920;23;20511;-87
2022/02/07 13:53:26;;;;;;;11.23;4.63;;;;;;;;;;5998159;23;21044;-85
2022/02/07 13:56:33;;;;;;;5.67;2.97;;;;;;;;;;6064882;23;20575;-87
2022/02/07 13:59:37;;;;;;;5.30;2.00;;;;;;;;;;6089460;23;20569;-85
2022/02/07 14:02:43;;;;;;;5.23;2.20;;;;;;;;;;6057800;23;20507;-87
2022/02/07 14:05:51;;;;;;;5.07;1.77;;;;;;;;;;6064701;23;20586;-86
2022/02/07 14:08:57;;;;;;;5.00;1.40;;;;;;;;;;6063919;23;20555;-87
2022/02/07 14:12:03;;;;;;;4.80;1.70;;;;;;;;;;6057029;23;20511;-85
2022/02/07 14:15:08;;;;;;;4.87;1.57;;;;;;;;;;6073312;23;20508;-87
2022/02/07 14:18:16;;;;;;;4.43;2.30;;;;;;;;;;6073907;23;21040;-85
2022/02/07 14:21:25;;;;;;;4.70;2.80;;;;;;;;;;6075240;23;20503;-87
2022/02/07 14:24:29;;;;;;;4.37;1.63;;;;;;;;;;6058904;23;20845;-87
2022/02/07 14:27:33;;;;;;;6.83;1.67;;;;;;;;;;6058472;23;20515;-87
2022/02/07 14:30:38;;;;;;;6.60;2.00;;;;;;;;;;6075767;23;20589;-85
2022/02/07 14:33:42;;;;;;;4.93;1.97;;;;;;;;;;6074602;23;20159;-88
2022/02/07 14:36:46;;;;;;;6.87;1.60;;;;;;;;;;6052124;23;20593;-85
2022/02/07 14:39:50;;;;;;;3.00;1.50;;;;;;;;;;6074831;23;20567;-87
2022/02/07 14:42:57;;;;;;;3.30;1.90;;;;;;;;;;6058776;23;20519;-85
2022/02/07 14:49:07;;;;;;;6.73;2.07;;;;;;;;;;6075036;23;20519;-87
2022/02/07 14:52:11;;;;;;;6.37;1.80;;;;;;;;;;6058487;23;20519;-85
2022/02/07 14:55:16;;;;;;;8.03;1.60;;;;;;;;;;6065590;23;20166;-87
2022/02/07 14:58:21;;;;;;;5.50;2.10;;;;;;;;;;6065270;23;20562;-88
2022/02/07 15:01:26;;;;;;;11.17;6.80;;;;;;;;;;6090988;23;20572;-85
2022/02/07 15:04:30;;;;;;;6.77;2.20;;;;;;;;;;6074763;23;20519;-85
2022/02/07 15:07:35;;;;;;;5.00;1.87;;;;;;;;;;6075257;23;20503;-88
2022/02/07 15:10:39;;;;;;;5.10;1.43;;;;;;;;;;6108127;23;20507;-85
2022/02/07 15:13:43;;;;;;;7.90;2.40;;;;;;;;;;6049286;23;21099;-88
2022/02/07 15:16:48;;;;;;;10.17;5.37;;;;;;;;;;6051222;23;20574;-85
2022/02/07 15:19:52;;;;;;;8.23;3.33;;;;;;;;;;6075393;23;20558;-85
2022/02/07 15:22:56;;;;;;;7.03;2.73;;;;;;;;;;6058869;23;20567;-86
2022/02/07 15:26:01;;;;;;;9.87;3.50;;;;;;;;;;6087127;23;20582;-87
2022/02/07 15:29:06;;;;;;;10.83;4.80;;;;;;;;;;6091316;23;20523;-84
2022/02/07 15:32:22;;;;;;;9.13;3.50;;;;;;;;;;6074818;23;20515;-85
2022/02/07 15:35:26;;;;;;;7.17;2.83;;;;;;;;;;6072206;23;20598;-87
2022/02/07 15:38:33;;;;;;;17.90;11.23;;;;;;;;;;6074376;23;20523;-87
2022/02/07 15:41:37;;;;;;;8.57;5.57;;;;;;;;;;6091165;23;21111;-85
2022/02/07 15:44:41;;;;;;;9.47;5.30;;;;;;;;;;6065747;23;20562;-85
2022/02/07 15:47:45;;;;;;;17.10;10.30;;;;;;;;;;6082415;23;20888;-86
2022/02/07 15:50:54;;;;;;;8.43;6.07;;;;;;;;;;6060472;23;20511;-86
2022/02/07 15:53:59;;;;;;;6.47;3.90;;;;;;;;;;6074448;23;20553;-88
2022/02/07 15:57:09;;;;;;;9.17;5.87;;;;;;;;;;6066962;23;20574;-88
2022/02/07 16:00:16;;;;;;;6.83;2.77;;;;;;;;;;6107883;23;20575;-85
2022/02/07 16:03:20;;;;;;;6.90;2.10;;;;;;;;;;6074988;23;20503;-86
2022/02/07 16:06:26;;;;;;;8.50;2.57;;;;;;;;;;6068591;23;20578;-85
2022/02/07 16:09:30;;;;;;;15.07;7.27;;;;;;;;;;6058792;23;20837;-87
2022/02/07 16:12:35;;;;;;;11.97;6.97;;;;;;;;;;6047875;23;20562;-87
2022/02/07 16:15:40;;;;;;;7.97;2.83;;;;;;;;;;6072571;23;20583;-85
2022/02/07 16:18:44;;;;;;;18.97;9.20;;;;;;;;;;6076575;23;20826;-86
2022/02/07 16:21:48;;;;;;;9.40;2.73;;;;;;;;;;6060349;23;20571;-85
2022/02/07 16:24:52;;;;;;;6.27;2.17;;;;;;;;;;6061038;23;20829;-88
2022/02/07 16:27:56;;;;;;;10.00;2.40;;;;;;;;;;6090739;23;20507;-87
2022/02/07 16:31:01;;;;;;;4.00;1.77;;;;;;;;;;6082580;23;21096;-85
2022/02/07 16:34:05;;;;;;;4.57;2.00;;;;;;;;;;6082331;23;20554;-86
2022/02/07 16:37:09;;;;;;;9.57;1.83;;;;;;;;;;6064074;23;20919;-88
2022/02/07 16:40:13;;;;;;;10.43;2.40;;;;;;;;;;6080821;23;21159;-88
2022/02/07 16:43:18;;;;;;;6.87;1.80;;;;;;;;;;6064526;23;20558;-88
2022/02/07 16:46:29;;;;;;;3.47;1.90;;;;;;;;;;6051987;23;20571;-86
2022/02/07 16:49:34;;;;;;;9.53;2.37;;;;;;;;;;6048636;23;20562;-86
2022/02/07 16:52:38;;;;;;;5.27;1.57;;;;;;;;;;6059038;23;20849;-85
2022/02/07 16:55:44;;;;;;;4.73;1.53;;;;;;;;;;6056927;23;20582;-87
2022/02/07 16:58:48;;;;;;;3.93;2.67;;;;;;;;;;6077553;23;20508;-86
2022/02/07 17:01:53;;;;;;;9.50;3.50;;;;;;;;;;6064828;23;20602;-87
2022/02/07 17:04:57;;;;;;;7.67;3.73;;;;;;;;;;6091030;23;20523;-88
2022/02/07 17:08:01;;;;;;;8.93;2.70;;;;;;;;;;6059872;23;20503;-87
2022/02/07 17:11:06;;;;;;;8.43;1.93;;;;;;;;;;6061739;23;20507;-86
2022/02/07 17:14:10;;;;;;;5.33;1.80;;;;;;;;;;6091880;23;20519;-87
2022/02/07 17:17:14;;;;;;;5.67;1.90;;;;;;;;;;6066343;23;20575;-86
2022/02/07 17:20:19;;;;;;;7.87;2.27;;;;;;;;;;6059482;23;20589;-88
2022/02/07 17:23:23;;;;;;;16.60;6.10;;;;;;;;;;6077312;23;21040;-86
2022/02/07 17:26:30;;;;;;;8.10;4.53;;;;;;;;;;6085452;23;20579;-88
2022/02/07 17:29:37;;;;;;;8.70;3.60;;;;;;;;;;6092267;23;20523;-86
2022/02/07 17:32:41;;;;;;;7.33;2.13;;;;;;;;;;6074022;23;20503;-87
2022/02/07 17:35:54;;;;;;;7.30;3.00;;;;;;;;;;6089548;23;20594;-86
2022/02/07 17:38:58;;;;;;;8.23;2.27;;;;;;;;;;6094901;23;20515;-85
2022/02/07 17:42:04;;;;;;;7.93;2.10;;;;;;;;;;6078374;23;20555;-86
2022/02/07 17:45:12;;;;;;;6.87;2.20;;;;;;;;;;6073659;23;20519;-87
2022/02/07 17:48:16;;;;;;;7.03;2.30;;;;;;;;;;6094535;23;20516;-85
2022/02/07 17:51:20;;;;;;;6.30;1.87;;;;;;;;;;6077301;23;20511;-85
2022/02/07 17:54:26;;;;;;;4.40;1.90;;;;;;;;;;6078559;23;20507;-85
2022/02/07 17:57:30;;;;;;;6.60;2.23;;;;;;;;;;6094709;23;20830;-86
2022/02/07 18:00:34;;;;;;;5.80;1.73;;;;;;;;;;6095914;23;20558;-85
2022/02/07 18:03:38;;;;;;;14.13;6.57;;;;;;;;;;6074800;23;20515;-88
2022/02/07 18:06:42;;;;;;;33.17;13.03;;;;;;;;;;6068287;23;20579;-87
2022/02/07 18:09:46;;;;;;;8.70;4.47;;;;;;;;;;6091104;23;20515;-86
2022/02/07 18:12:51;;;;;;;6.80;2.57;;;;;;;;;;6077375;23;20511;-85
2022/02/07 18:15:57;;;;;;;8.37;5.17;;;;;;;;;;6058589;23;21150;-85
2022/02/07 18:19:03;;;;;;;15.60;7.30;;;;;;;;;;6076115;23;20515;-85
2022/02/07 18:22:08;;;;;;;14.77;5.90;;;;;;;;;;6060427;23;20862;-88
2022/02/07 18:25:12;;;;;;;9.13;4.20;;;;;;;;;;6092364;23;21036;-86
2022/02/07 18:28:21;;;;;;;5.40;2.30;;;;;;;;;;6075804;23;20821;-88
2022/02/07 18:31:25;;;;;;;6.17;2.43;;;;;;;;;;6099727;23;20559;-86
2022/02/07 18:34:33;;;;;;;5.37;2.00;;;;;;;;;;6080887;23;21059;-87
2022/02/07 18:37:39;;;;;;;7.63;2.00;;;;;;;;;;6068849;23;21096;-87
2022/02/07 18:40:50;;;;;;;5.83;2.13;;;;;;;;;;6091374;23;20559;-85
2022/02/07 18:43:56;;;;;;;4.97;2.10;;;;;;;;;;6050757;23;20555;-87
2022/02/07 18:47:01;;;;;;;6.53;1.87;;;;;;;;;;6084363;23;20582;-88
2022/02/07 18:50:06;;;;;;;7.33;2.17;;;;;;;;;;6074340;23;20507;-88
2022/02/07 18:53:11;;;;;;;8.30;2.17;;;;;;;;;;6060189;23;20516;-87
2022/02/07 18:56:17;;;;;;;7.03;1.73;;;;;;;;;;6087375;23;20881;-88
2022/02/07 18:59:27;;;;;;;8.10;2.40;;;;;;;;;;6090607;23;20512;-88
2022/02/07 19:02:43;;;;;;;5.93;2.00;;;;;;;;;;6058601;23;20563;-87
2022/02/07 19:08:54;;;;;;;8.87;2.23;;;;;;;;;;6075546;23;20837;-88
2022/02/07 19:11:59;;;;;;;5.47;1.87;;;;;;;;;;6107872;23;20511;-87
2022/02/07 19:15:05;;;;;;;8.47;2.27;;;;;;;;;;6075363;23;20511;-85
2022/02/07 19:18:12;;;;;;;7.23;2.23;;;;;;;;;;6092538;23;20519;-87
2022/02/07 19:21:18;;;;;;;7.40;3.00;;;;;;;;;;6075216;23;20558;-87
2022/02/07 19:24:34;;;;;;;8.37;2.33;;;;;;;;;;6075860;23;20519;-85
2022/02/07 19:27:50;;;;;;;7.30;2.53;;;;;;;;;;6059380;23;20516;-85
2022/02/07 19:31:09;;;;;;;7.00;1.93;;;;;;;;;;6066172;23;20555;-84
2022/02/07 19:34:27;;;;;;;5.73;1.90;;;;;;;;;;6065222;23;21096;-86
2022/02/07 19:37:31;;;;;;;8.60;2.23;;;;;;;;;;6091693;23;20829;-86
2022/02/07 19:40:42;;;;;;;9.20;2.30;;;;;;;;;;6058338;23;20527;-86
2022/02/07 19:43:48;;;;;;;4.20;2.10;;;;;;;;;;6075251;23;20508;-87
2022/02/07 19:46:54;;;;;;;8.43;2.40;;;;;;;;;;6067605;23;20582;-85
2022/02/07 19:49:58;;;;;;;6.87;3.63;;;;;;;;;;6059578;23;21033;-87
2022/02/07 19:53:05;;;;;;;34.60;14.23;;;;;;;;;;6049548;23;20868;-88
2022/02/07 19:56:11;;;;;;;17.60;6.57;;;;;;;;;;6070683;23;21181;-87
2022/02/07 19:59:16;;;;;;;25.80;10.40;;;;;;;;;;6074494;23;20504;-87
2022/02/07 20:02:26;;;;;;;16.80;5.80;;;;;;;;;;6091695;23;21095;-87
2022/02/07 20:05:34;;;;;;;8.73;3.00;;;;;;;;;;6049305;23;20582;-88
2022/02/07 20:08:39;;;;;;;4.73;2.00;;;;;;;;;;6065691;23;20554;-85
2022/02/07 20:11:57;;;;;;;3.97;1.90;;;;;;;;;;6058955;23;20519;-86
2022/02/07 20:15:01;;;;;;;9.60;2.93;;;;;;;;;;6064874;23;20585;-87
2022/02/07 20:18:07;;;;;;;6.87;2.37;;;;;;;;;;6076159;23;20508;-85
2022/02/07 20:21:11;;;;;;;7.47;2.10;;;;;;;;;;6061065;23;20562;-85
2022/02/07 20:24:15;;;;;;;7.87;2.77;;;;;;;;;;6059502;23;20519;-86
2022/02/07 20:27:21;;;;;;;9.30;2.40;;;;;;;;;;6050895;23;20570;-85
2022/02/07 20:30:27;;;;;;;7.03;2.83;;;;;;;;;;6075304;23;20507;-85
2022/02/07 20:33:36;;;;;;;8.97;2.80;;;;;;;;;;6074476;23;20508;-88
2022/02/07 20:36:40;;;;;;;7.97;2.07;;;;;;;;;;6084540;23;20594;-87
2022/02/07 20:39:44;;;;;;;11.63;2.33;;;;;;;;;;6074830;23;21021;-88
2022/02/07 20:42:49;;;;;;;11.40;2.60;;;;;;;;;;6064495;23;20599;-88
2022/02/07 20:45:52;;;;;;;5.37;2.13;;;;;;;;;;6071815;23;20894;-85
2022/02/07 20:49:03;;;;;;;7.27;2.30;;;;;;;;;;6058219;23;20507;-88
2022/02/07 20:52:07;;;;;;;8.60;2.33;;;;;;;;;;6060410;23;20511;-88
2022/02/07 20:55:11;;;;;;;11.90;2.70;;;;;;;;;;6073033;23;20515;-88
2022/02/07 20:58:16;;;;;;;4.90;2.60;;;;;;;;;;6059558;23;20499;-86
2022/02/07 21:01:23;;;;;;;10.20;2.20;;;;;;;;;;6062083;23;20754;-88
2022/02/07 21:04:34;;;;;;;8.37;2.50;;;;;;;;;;6057295;23;21044;-87
2022/02/07 21:07:39;;;;;;;7.63;2.27;;;;;;;;;;6074778;23;20503;-86
2022/02/07 21:10:44;;;;;;;5.87;2.13;;;;;;;;;;6078854;23;20507;-85
2022/02/07 21:13:48;;;;;;;6.40;2.20;;;;;;;;;;6074146;23;20507;-87